Elisabeth K — PBEO — position and weather

sailwx.info

Track history (hours):
 
Tides and Currents Weather Stations Pressure Air Temp Water Temp Dewpoint Dewpoint Depression Visibility Wind Speed Wind Dir Waves Ship Positions

Elisabeth K

Last reported at 2017-Dec-10 22:01 UTC. Time now 2017-Dec-14 10:13 UTC.
Position N 54°22' E 009°50'.

Length 87.9 m; beam 12.8 m; draft 5.5 m.

Type: Cargo ship. MMSI: 245712000.

Date/timePositionNaut miles runAvg speedWind from/ knotsBaromVisibWave heightAir tempDewpointWater temp
2017-Dec-10 22:01N 54°22' E 009°50'0 8.4
2017-Dec-10 22:00N 54°22' E 009°49'4 7.6
2017-Dec-10 21:30N 54°20' E 009°44'3 6.7
2017-Dec-10 21:00N 54°17' E 009°40'3 6.8
2017-Dec-10 20:30N 54°15' E 009°37'3 6.6
2017-Dec-10 20:00N 54°12' E 009°33'4 8.2
2017-Dec-10 19:30N 54°10' E 009°27'4 8.2
2017-Dec-10 19:00N 54°09' E 009°21'4 7.3
2017-Dec-10 18:30N 54°05' E 009°19'3 5.6
2017-Dec-10 18:00N 54°02' E 009°18'1 1.7
2017-Dec-10 17:30N 54°01' E 009°18'3 6.9
2017-Dec-10 17:00N 53°58' E 009°16'4 7.5
2017-Dec-10 16:30N 53°55' E 009°12'3 5.1
2017-Dec-10 16:00N 53°54' E 009°09'0 0.0
2017-Dec-10 15:30N 53°54' E 009°09'2 3.2
2017-Dec-10 15:00N 53°53' E 009°06'1 2.8
2017-Dec-10 14:30N 53°53' E 009°04'510.5
2017-Dec-10 14:00N 53°51' E 008°56'610.9
2017-Dec-10 13:30N 53°51' E 008°46'510.2
2017-Dec-10 13:00N 53°55' E 008°41'510.0
2017-Dec-10 12:30N 53°58' E 008°34'510.2
2017-Dec-10 12:00N 53°59' E 008°26'510.4
2017-Dec-10 11:30N 53°59' E 008°17'611.6
2017-Dec-10 11:00N 53°59' E 008°07'611.1
2017-Dec-10 10:29N 53°57' E 007°58'9310.3
2017-Dec-10 01:24N 53°33' E 005°25'511.2
2017-Dec-10 00:59N 53°32' E 005°18'511.3
2017-Dec-10 00:30N 53°30' E 005°09'611.1
2017-Dec-10 00:00N 53°28' E 005°01'611.2
2017-Dec-09 23:30N 53°25' E 004°52'22 9.9
2017-Dec-09 21:15N 53°08' E 004°30'410.5
2017-Dec-09 20:50N 53°04' E 004°26'510.7
2017-Dec-09 20:22N 52°59' E 004°22'410.5
2017-Dec-09 20:00N 52°56' E 004°19'510.9
2017-Dec-09 19:30N 52°51' E 004°15'510.6
2017-Dec-09 19:00N 52°46' E 004°12'3 7.0
2017-Dec-09 18:30N 52°43' E 004°13'4 7.3
2017-Dec-09 18:00N 52°40' E 004°17'3 6.3
2017-Dec-09 17:31N 52°37' E 004°19'3 6.9
2017-Dec-09 17:00N 52°34' E 004°22'3 6.9
2017-Dec-09 16:30N 52°32' E 004°25'3 6.0
2017-Dec-09 16:00N 52°29' E 004°28'3 6.3
2017-Dec-09 15:30N 52°28' E 004°33'2 4.2
2017-Dec-09 15:00N 52°28' E 004°37'5 9.2
2017-Dec-09 14:30N 52°26' E 004°43'4 6.9
2017-Dec-09 14:00N 52°25' E 004°49'0 0.0
2017-Dec-09 13:29N 52°25' E 004°49'0 0.0
2017-Dec-09 12:59N 52°25' E 004°49'0 0.0
2017-Dec-09 12:29N 52°25' E 004°49'0 0.0
2017-Dec-09 11:58N 52°25' E 004°49'0 0.0
2017-Dec-09 11:28N 52°25' E 004°49'0 0.0
2017-Dec-09 10:55N 52°25' E 004°49'0 0.1
2017-Dec-09 10:28N 52°25' E 004°49'0 0.0
2017-Dec-09 09:58N 52°25' E 004°49'0 0.0
2017-Dec-09 09:28N 52°25' E 004°49'0 0.0
2017-Dec-09 08:52N 52°25' E 004°49'0 0.0
2017-Dec-09 08:22N 52°25' E 004°49'0 0.0
2017-Dec-09 07:52N 52°25' E 004°49'0 0.0
2017-Dec-09 07:31N 52°25' E 004°49'0 0.0
2017-Dec-09 06:58N 52°25' E 004°49'0 0.0
2017-Dec-09 06:31N 52°25' E 004°49'0 0.0
2017-Dec-09 05:58N 52°25' E 004°49'0 0.0
2017-Dec-09 05:24N 52°25' E 004°49'0 0.0
2017-Dec-09 05:00N 52°25' E 004°49'0 0.0
2017-Dec-09 04:30N 52°25' E 004°49'0 0.0
2017-Dec-09 04:00N 52°25' E 004°49'0 0.0
2017-Dec-09 03:30N 52°25' E 004°49'0 0.0
2017-Dec-09 03:00N 52°25' E 004°49'0 0.0
2017-Dec-09 02:30N 52°25' E 004°49'0 0.0
2017-Dec-09 01:57N 52°25' E 004°49'0 0.0
2017-Dec-09 01:30N 52°25' E 004°49'0 0.0
2017-Dec-09 01:00N 52°25' E 004°49'0 0.0
2017-Dec-09 00:24N 52°25' E 004°49'0 0.0
2017-Dec-09 00:00N 52°25' E 004°49'0 0.0
2017-Dec-08 23:27N 52°25' E 004°49'0 0.0
2017-Dec-08 23:00N 52°25' E 004°49'0 0.2
2017-Dec-08 22:30N 52°25' E 004°49'3 6.2
2017-Dec-08 22:00N 52°26' E 004°44'5 9.3
2017-Dec-08 21:31N 52°28' E 004°37'1 1.3
2017-Dec-08 21:00N 52°28' E 004°36'2 5.0
2017-Dec-08 20:30N 52°28' E 004°32'4 7.4
2017-Dec-08 20:00N 52°27' E 004°26'1 1.2
2017-Dec-08 19:31N 52°27' E 004°25'1 2.1
2017-Dec-08 19:01N 52°27' E 004°23'3 5.2
2017-Dec-08 18:30N 52°28' E 004°19'1 1.9
2017-Dec-08 18:00N 52°28' E 004°18'1 2.0
2017-Dec-08 17:31N 52°28' E 004°19'1 1.8
2017-Dec-08 17:01N 52°28' E 004°21'1 1.9
2017-Dec-08 16:30N 52°28' E 004°22'1 1.4
2017-Dec-08 16:00N 52°28' E 004°23'4 8.7
2017-Dec-08 15:30N 52°28' E 004°16'4 8.3
2017-Dec-08 15:01N 52°28' E 004°10'4 8.1
2017-Dec-08 14:30N 52°28' E 004°03'4 7.8
2017-Dec-08 14:00N 52°27' E 003°57'4 7.7
2017-Dec-08 13:30N 52°26' E 003°51'5 7.5
2017-Dec-08 12:49N 52°24' E 003°43'2 7.1
2017-Dec-08 12:29N 52°23' E 003°39'4 6.9
2017-Dec-08 11:59N 52°21' E 003°34'3 6.9
2017-Dec-08 11:30N 52°19' E 003°30'4 7.1
2017-Dec-08 10:59N 52°17' E 003°25'56 8.8
2017-Dec-08 04:38N 51°36' E 002°24'2 9.8
2017-Dec-08 04:28N 51°35' E 002°23'710.1
2017-Dec-08 03:49N 51°30' E 002°16'3 9.2
2017-Dec-08 03:30N 51°27' E 002°15'5 9.2
2017-Dec-08 03:00N 51°22' E 002°13'5 9.8
2017-Dec-08 02:30N 51°18' E 002°08'5 9.7
2017-Dec-08 02:01N 51°14' E 002°04'510.1
2017-Dec-08 01:31N 51°11' E 001°58'5 9.6
2017-Dec-08 01:00N 51°08' E 001°52'4 8.9
2017-Dec-08 00:31N 51°05' E 001°46'4 8.3
2017-Dec-08 00:01N 51°02' E 001°41'4 7.5
2017-Dec-07 23:30N 50°60' E 001°37'3 6.8
2017-Dec-07 23:00N 50°57' E 001°34'3 6.3
2017-Dec-07 22:29N 50°54' E 001°31'3 5.8
2017-Dec-07 22:00N 50°52' E 001°29'  
2017-Dec-04 02:26N 43°51' W 007°08'46510.4
2017-Dec-02 05:38N 51°16' W 010°24'211.5
2017-Dec-02 05:29N 51°18' W 010°25'  
Track history (hours):
 
Tides and Currents Weather Stations Pressure Air Temp Water Temp Dewpoint Dewpoint Depression Visibility Wind Speed Wind Dir Waves Ship Positions

Elisabeth K

Last reported at 2017-Dec-10 22:01 UTC. Time now 2017-Dec-14 10:13 UTC.
Position N 54°22' E 009°50'.

Length 87.9 m; beam 12.8 m; draft 5.5 m.

Type: Cargo ship. MMSI: 245712000.

Date/timePositionNaut miles runAvg speedWind from/ knotsBaromVisibWave heightAir tempDewpointWater temp
2017-Dec-10 22:01N 54°22' E 009°50'0 8.4
2017-Dec-10 22:00N 54°22' E 009°49'4 7.6
2017-Dec-10 21:30N 54°20' E 009°44'3 6.7
2017-Dec-10 21:00N 54°17' E 009°40'3 6.8
2017-Dec-10 20:30N 54°15' E 009°37'3 6.6
2017-Dec-10 20:00N 54°12' E 009°33'4 8.2
2017-Dec-10 19:30N 54°10' E 009°27'4 8.2
2017-Dec-10 19:00N 54°09' E 009°21'4 7.3
2017-Dec-10 18:30N 54°05' E 009°19'3 5.6
2017-Dec-10 18:00N 54°02' E 009°18'1 1.7
2017-Dec-10 17:30N 54°01' E 009°18'3 6.9
2017-Dec-10 17:00N 53°58' E 009°16'4 7.5
2017-Dec-10 16:30N 53°55' E 009°12'3 5.1
2017-Dec-10 16:00N 53°54' E 009°09'0 0.0
2017-Dec-10 15:30N 53°54' E 009°09'2 3.2
2017-Dec-10 15:00N 53°53' E 009°06'1 2.8
2017-Dec-10 14:30N 53°53' E 009°04'510.5
2017-Dec-10 14:00N 53°51' E 008°56'610.9
2017-Dec-10 13:30N 53°51' E 008°46'510.2
2017-Dec-10 13:00N 53°55' E 008°41'510.0
2017-Dec-10 12:30N 53°58' E 008°34'510.2
2017-Dec-10 12:00N 53°59' E 008°26'510.4
2017-Dec-10 11:30N 53°59' E 008°17'611.6
2017-Dec-10 11:00N 53°59' E 008°07'611.1
2017-Dec-10 10:29N 53°57' E 007°58'9310.3
2017-Dec-10 01:24N 53°33' E 005°25'511.2
2017-Dec-10 00:59N 53°32' E 005°18'511.3
2017-Dec-10 00:30N 53°30' E 005°09'611.1
2017-Dec-10 00:00N 53°28' E 005°01'611.2
2017-Dec-09 23:30N 53°25' E 004°52'22 9.9
2017-Dec-09 21:15N 53°08' E 004°30'410.5
2017-Dec-09 20:50N 53°04' E 004°26'510.7
2017-Dec-09 20:22N 52°59' E 004°22'410.5
2017-Dec-09 20:00N 52°56' E 004°19'510.9
2017-Dec-09 19:30N 52°51' E 004°15'510.6
2017-Dec-09 19:00N 52°46' E 004°12'3 7.0
2017-Dec-09 18:30N 52°43' E 004°13'4 7.3
2017-Dec-09 18:00N 52°40' E 004°17'3 6.3
2017-Dec-09 17:31N 52°37' E 004°19'3 6.9
2017-Dec-09 17:00N 52°34' E 004°22'3 6.9
2017-Dec-09 16:30N 52°32' E 004°25'3 6.0
2017-Dec-09 16:00N 52°29' E 004°28'3 6.3
2017-Dec-09 15:30N 52°28' E 004°33'2 4.2
2017-Dec-09 15:00N 52°28' E 004°37'5 9.2
2017-Dec-09 14:30N 52°26' E 004°43'4 6.9
2017-Dec-09 14:00N 52°25' E 004°49'0 0.0
2017-Dec-09 13:29N 52°25' E 004°49'0 0.0
2017-Dec-09 12:59N 52°25' E 004°49'0 0.0
2017-Dec-09 12:29N 52°25' E 004°49'0 0.0
2017-Dec-09 11:58N 52°25' E 004°49'0 0.0
2017-Dec-09 11:28N 52°25' E 004°49'0 0.0
2017-Dec-09 10:55N 52°25' E 004°49'0 0.1
2017-Dec-09 10:28N 52°25' E 004°49'0 0.0
2017-Dec-09 09:58N 52°25' E 004°49'0 0.0
2017-Dec-09 09:28N 52°25' E 004°49'0 0.0
2017-Dec-09 08:52N 52°25' E 004°49'0 0.0
2017-Dec-09 08:22N 52°25' E 004°49'0 0.0
2017-Dec-09 07:52N 52°25' E 004°49'0 0.0
2017-Dec-09 07:31N 52°25' E 004°49'0 0.0
2017-Dec-09 06:58N 52°25' E 004°49'0 0.0
2017-Dec-09 06:31N 52°25' E 004°49'0 0.0
2017-Dec-09 05:58N 52°25' E 004°49'0 0.0
2017-Dec-09 05:24N 52°25' E 004°49'0 0.0
2017-Dec-09 05:00N 52°25' E 004°49'0 0.0
2017-Dec-09 04:30N 52°25' E 004°49'0 0.0
2017-Dec-09 04:00N 52°25' E 004°49'0 0.0
2017-Dec-09 03:30N 52°25' E 004°49'0 0.0
2017-Dec-09 03:00N 52°25' E 004°49'0 0.0
2017-Dec-09 02:30N 52°25' E 004°49'0 0.0
2017-Dec-09 01:57N 52°25' E 004°49'0 0.0
2017-Dec-09 01:30N 52°25' E 004°49'0 0.0
2017-Dec-09 01:00N 52°25' E 004°49'0 0.0
2017-Dec-09 00:24N 52°25' E 004°49'0 0.0
2017-Dec-09 00:00N 52°25' E 004°49'0 0.0
2017-Dec-08 23:27N 52°25' E 004°49'0 0.0
2017-Dec-08 23:00N 52°25' E 004°49'0 0.2
2017-Dec-08 22:30N 52°25' E 004°49'3 6.2
2017-Dec-08 22:00N 52°26' E 004°44'5 9.3
2017-Dec-08 21:31N 52°28' E 004°37'1 1.3
2017-Dec-08 21:00N 52°28' E 004°36'2 5.0
2017-Dec-08 20:30N 52°28' E 004°32'4 7.4
2017-Dec-08 20:00N 52°27' E 004°26'1 1.2
2017-Dec-08 19:31N 52°27' E 004°25'1 2.1
2017-Dec-08 19:01N 52°27' E 004°23'3 5.2
2017-Dec-08 18:30N 52°28' E 004°19'1 1.9
2017-Dec-08 18:00N 52°28' E 004°18'1 2.0
2017-Dec-08 17:31N 52°28' E 004°19'1 1.8
2017-Dec-08 17:01N 52°28' E 004°21'1 1.9
2017-Dec-08 16:30N 52°28' E 004°22'1 1.4
2017-Dec-08 16:00N 52°28' E 004°23'4 8.7
2017-Dec-08 15:30N 52°28' E 004°16'4 8.3
2017-Dec-08 15:01N 52°28' E 004°10'4 8.1
2017-Dec-08 14:30N 52°28' E 004°03'4 7.8
2017-Dec-08 14:00N 52°27' E 003°57'4 7.7
2017-Dec-08 13:30N 52°26' E 003°51'5 7.5
2017-Dec-08 12:49N 52°24' E 003°43'2 7.1
2017-Dec-08 12:29N 52°23' E 003°39'4 6.9
2017-Dec-08 11:59N 52°21' E 003°34'3 6.9
2017-Dec-08 11:30N 52°19' E 003°30'4 7.1
2017-Dec-08 10:59N 52°17' E 003°25'56 8.8
2017-Dec-08 04:38N 51°36' E 002°24'2 9.8
2017-Dec-08 04:28N 51°35' E 002°23'710.1
2017-Dec-08 03:49N 51°30' E 002°16'3 9.2
2017-Dec-08 03:30N 51°27' E 002°15'5 9.2
2017-Dec-08 03:00N 51°22' E 002°13'5 9.8
2017-Dec-08 02:30N 51°18' E 002°08'5 9.7
2017-Dec-08 02:01N 51°14' E 002°04'510.1
2017-Dec-08 01:31N 51°11' E 001°58'5 9.6
2017-Dec-08 01:00N 51°08' E 001°52'4 8.9
2017-Dec-08 00:31N 51°05' E 001°46'4 8.3
2017-Dec-08 00:01N 51°02' E 001°41'4 7.5
2017-Dec-07 23:30N 50°60' E 001°37'3 6.8
2017-Dec-07 23:00N 50°57' E 001°34'3 6.3
2017-Dec-07 22:29N 50°54' E 001°31'3 5.8
2017-Dec-07 22:00N 50°52' E 001°29'  
2017-Dec-04 02:26N 43°51' W 007°08'46510.4
2017-Dec-02 05:38N 51°16' W 010°24'211.5
2017-Dec-02 05:29N 51°18' W 010°25'  

Dump ship's entire track history